Time;durP1;ratioP1;P1;durP2;ratioP2;P2;SDS_P1;SDS_P2;PMS_P1;PMS_P2;Temp;Humidity;BMP_temperature;BMP_pressure;BME280_temperature;BME280_humidity;BME280_pressure;Samples;Min_cycle;Max_cycle;Signal;HPM_P1;HPM_P2
2021/03/25 00:02:04;;;;;;;;;;;3.90;92.00;;;;;;5087846;28;19998;-68
2021/03/25 00:04:29;;;;;;;;;;;3.80;92.40;;;;;;5075093;28;20429;-67
2021/03/25 00:06:56;;;;;;;;;;;3.80;92.90;;;;;;5078105;28;19913;-67
2021/03/25 00:09:28;;;;;;;;;;;3.80;92.80;;;;;;5075460;28;19913;-67
2021/03/25 00:11:53;;;;;;;;;;;3.80;92.90;;;;;;5084722;28;19934;-66
2021/03/25 00:14:21;;;;;;;;;;;3.90;92.60;;;;;;5078871;28;19992;-68
2021/03/25 00:16:47;;;;;;;;;;;4.00;92.20;;;;;;5085899;28;19924;-68
2021/03/25 00:19:13;;;;;;;;;;;4.10;92.00;;;;;;5077400;28;20015;-67
2021/03/25 00:21:39;;;;;;;;;;;4.20;91.80;;;;;;5085038;28;19947;-68
2021/03/25 00:24:06;;;;;;;;;;;4.20;91.90;;;;;;5076586;28;19955;-67
2021/03/25 00:26:34;;;;;;;;;;;4.30;91.50;;;;;;5091343;28;19973;-67
2021/03/25 00:29:00;;;;;;;;;;;4.30;91.20;;;;;;5079343;28;20303;-67
2021/03/25 00:31:26;;;;;;;;;;;4.20;91.60;;;;;;5080946;28;19951;-66
2021/03/25 00:33:51;;;;;;;;;;;4.30;91.40;;;;;;5096024;28;20189;-70
2021/03/25 00:36:17;;;;;;;;;;;4.30;91.30;;;;;;5084372;28;20058;-66
2021/03/25 00:38:43;;;;;;;;;;;4.30;91.60;;;;;;5083483;28;19958;-67
2021/03/25 00:41:09;;;;;;;;;;;4.20;92.00;;;;;;5084566;28;19912;-67
2021/03/25 00:43:34;;;;;;;;;;;4.30;92.10;;;;;;5083931;28;19924;-67
2021/03/25 00:46:00;;;;;;;;;;;4.40;91.90;;;;;;5081867;28;20305;-66
2021/03/25 00:48:26;;;;;;;;;;;4.50;92.00;;;;;;5088212;28;20010;-67
2021/03/25 00:50:56;;;;;;;;;;;4.50;92.10;;;;;;5089534;28;19926;-67
2021/03/25 00:53:24;;;;;;;;;;;4.40;92.20;;;;;;5070040;28;19916;-67
2021/03/25 00:55:49;;;;;;;;;;;4.30;92.40;;;;;;5087271;28;20262;-67
2021/03/25 00:58:15;;;;;;;;;;;4.20;92.90;;;;;;5090785;28;19913;-66
2021/03/25 01:00:42;;;;;;;;;;;4.20;93.20;;;;;;5086838;28;20208;-68
2021/03/25 01:03:08;;;;;;;;;;;4.20;93.30;;;;;;5087950;28;20428;-67
2021/03/25 01:05:34;;;;;;;;;;;4.20;93.30;;;;;;5082962;28;19912;-66
2021/03/25 01:08:00;;;;;;;;;;;4.10;93.40;;;;;;5095713;28;19919;-67
2021/03/25 01:10:30;;;;;;;;;;;4.10;93.60;;;;;;5081315;28;19920;-67
2021/03/25 01:12:56;;;;;;;;;;;4.00;93.80;;;;;;5095198;28;20077;-66
2021/03/25 01:15:22;;;;;;;;;;;3.90;94.10;;;;;;5088081;28;19954;-68
2021/03/25 01:17:50;;;;;;;;;;;3.90;94.30;;;;;;5086620;28;19916;-69
2021/03/25 01:20:21;;;;;;;;;;;3.80;94.30;;;;;;5076424;28;19957;-68
2021/03/25 01:22:47;;;;;;;;;;;3.90;94.60;;;;;;5081186;28;19938;-68
2021/03/25 01:25:13;;;;;;;;;;;4.00;94.20;;;;;;5082205;28;19918;-68
2021/03/25 01:27:39;;;;;;;;;;;4.00;94.10;;;;;;5086762;28;20272;-68
2021/03/25 01:30:05;;;;;;;;;;;3.90;94.40;;;;;;5087023;28;19916;-69
2021/03/25 01:32:31;;;;;;;;;;;3.90;94.40;;;;;;5098632;28;19916;-68
2021/03/25 01:34:56;;;;;;;;;;;4.00;94.60;;;;;;5085336;28;19916;-68
2021/03/25 01:37:22;;;;;;;;;;;4.10;94.40;;;;;;5089851;28;19930;-69
2021/03/25 01:39:49;;;;;;;;;;;4.20;94.00;;;;;;5087157;28;19955;-69
2021/03/25 01:42:23;;;;;;;;;;;4.20;94.10;;;;;;5087239;28;19977;-68
2021/03/25 01:44:48;;;;;;;;;;;4.20;94.10;;;;;;5092300;28;19912;-69
2021/03/25 01:47:14;;;;;;;;;;;4.10;94.20;;;;;;5075263;28;19916;-68
2021/03/25 01:49:39;;;;;;;;;;;4.10;94.40;;;;;;5095103;28;20018;-69
2021/03/25 01:52:11;;;;;;;;;;;4.00;94.60;;;;;;5096975;28;20305;-68
2021/03/25 01:55:01;;;;;;;;;;;3.90;94.80;;;;;;5082631;28;19912;-69
2021/03/25 01:57:32;;;;;;;;;;;3.80;94.90;;;;;;5095425;28;19912;-69
2021/03/25 02:00:03;;;;;;;;;;;3.80;95.10;;;;;;5081394;28;19912;-68
2021/03/25 02:02:34;;;;;;;;;;;4.00;95.20;;;;;;5079484;28;19924;-69
2021/03/25 02:05:18;;;;;;;;;;;4.00;94.80;;;;;;5078702;28;19935;-68
2021/03/25 02:07:55;;;;;;;;;;;4.00;94.90;;;;;;5076013;28;19916;-68
2021/03/25 02:10:21;;;;;;;;;;;4.20;94.60;;;;;;5094343;28;19912;-68
2021/03/25 02:13:01;;;;;;;;;;;4.20;94.20;;;;;;5092797;28;19924;-69
2021/03/25 02:15:36;;;;;;;;;;;4.20;94.30;;;;;;5079322;28;19994;-70
2021/03/25 02:18:07;;;;;;;;;;;4.20;94.30;;;;;;5081163;28;19912;-67
2021/03/25 02:20:51;;;;;;;;;;;4.20;94.30;;;;;;5081955;28;19955;-69
2021/03/25 02:23:32;;;;;;;;;;;4.10;94.80;;;;;;5069066;28;19912;-67
2021/03/25 02:26:01;;;;;;;;;;;4.10;94.70;;;;;;5095821;28;19994;-68
2021/03/25 02:28:45;;;;;;;;;;;4.20;94.50;;;;;;5081125;28;19912;-69
2021/03/25 02:31:14;;;;;;;;;;;4.30;94.80;;;;;;5084578;28;19920;-69
2021/03/25 02:33:41;;;;;;;;;;;4.20;94.70;;;;;;5078825;28;19916;-67
2021/03/25 02:36:09;;;;;;;;;;;4.20;94.60;;;;;;5089635;28;20297;-68
2021/03/25 02:38:38;;;;;;;;;;;4.10;94.60;;;;;;5075820;28;19962;-69
2021/03/25 02:41:05;;;;;;;;;;;4.10;94.80;;;;;;5086085;28;19912;-68
2021/03/25 02:43:40;;;;;;;;;;;4.10;94.80;;;;;;5073366;28;19919;-67
2021/03/25 02:46:18;;;;;;;;;;;4.10;94.70;;;;;;5092516;28;19943;-67
2021/03/25 02:48:46;;;;;;;;;;;4.10;94.90;;;;;;5089710;28;20014;-67
2021/03/25 02:51:14;;;;;;;;;;;4.10;94.80;;;;;;5080836;28;19917;-67
2021/03/25 02:53:41;;;;;;;;;;;3.80;94.70;;;;;;5080030;28;20003;-69
2021/03/25 02:56:16;;;;;;;;;;;3.80;95.20;;;;;;5092485;28;19956;-69
2021/03/25 02:58:43;;;;;;;;;;;3.70;95.30;;;;;;5086222;28;20011;-70
2021/03/25 03:01:13;;;;;;;;;;;3.60;95.40;;;;;;5094069;28;19912;-69
2021/03/25 03:03:45;;;;;;;;;;;3.60;95.30;;;;;;5087091;28;20062;-70
2021/03/25 03:06:15;;;;;;;;;;;3.60;95.40;;;;;;5089693;28;19919;-70
2021/03/25 03:08:43;;;;;;;;;;;3.60;95.20;;;;;;5087907;28;19951;-70
2021/03/25 03:11:11;;;;;;;;;;;3.60;95.50;;;;;;5096541;28;19919;-69
2021/03/25 03:13:49;;;;;;;;;;;3.40;95.40;;;;;;5087510;28;19920;-69
2021/03/25 03:16:53;;;;;;;;;;;3.40;95.50;;;;;;5082770;28;19916;-68
2021/03/25 03:19:41;;;;;;;;;;;3.40;95.60;;;;;;5012554;28;20214;-68
2021/03/25 03:22:08;;;;;;;;;;;3.40;95.40;;;;;;5003106;28;19913;-68
2021/03/25 03:24:34;;;;;;;;;;;3.40;95.60;;;;;;5045367;28;20285;-68
2021/03/25 03:27:02;;;;;;;;;;;3.50;95.20;;;;;;5086091;28;19919;-70
2021/03/25 03:29:29;;;;;;;;;;;3.60;95.10;;;;;;5081180;28;19912;-68
2021/03/25 03:31:57;;;;;;;;;;;3.50;94.90;;;;;;5086998;28;19985;-69
2021/03/25 03:34:31;;;;;;;;;;;3.30;94.80;;;;;;5076723;28;20324;-69
2021/03/25 03:36:58;;;;;;;;;;;3.20;95.30;;;;;;5080398;28;20224;-69
2021/03/25 03:39:27;;;;;;;;;;;3.20;95.50;;;;;;5057796;28;19912;-69
2021/03/25 03:42:01;;;;;;;;;;;3.40;95.00;;;;;;5091375;28;19937;-69
2021/03/25 03:44:28;;;;;;;;;;;3.50;94.50;;;;;;5083987;28;20224;-69
2021/03/25 03:46:55;;;;;;;;;;;3.60;93.80;;;;;;5088451;28;20306;-69
2021/03/25 03:49:44;;;;;;;;;;;3.60;93.50;;;;;;5070950;28;20545;-70
2021/03/25 03:52:28;;;;;;;;;;;3.70;93.10;;;;;;5074206;28;19920;-69
2021/03/25 03:54:54;;;;;;;;;;;3.70;92.70;;;;;;5066320;28;19962;-67
2021/03/25 03:57:20;;;;;;;;;;;3.80;92.00;;;;;;5081232;28;19912;-69
2021/03/25 03:59:48;;;;;;;;;;;3.90;91.40;;;;;;5076775;28;19917;-68
2021/03/25 04:02:30;;;;;;;;;;;3.90;91.20;;;;;;5082008;28;19927;-68
2021/03/25 04:05:04;;;;;;;;;;;3.90;91.00;;;;;;5064546;28;19913;-70
2021/03/25 04:07:32;;;;;;;;;;;3.80;91.10;;;;;;5063653;28;19913;-68
2021/03/25 04:10:04;;;;;;;;;;;3.80;91.20;;;;;;5094037;28;20007;-69
2021/03/25 04:12:32;;;;;;;;;;;3.80;90.90;;;;;;5083557;28;19916;-67
2021/03/25 04:15:01;;;;;;;;;;;4.00;89.90;;;;;;5062054;28;19916;-69
2021/03/25 04:17:28;;;;;;;;;;;4.10;89.40;;;;;;5086529;28;20312;-67
2021/03/25 04:19:57;;;;;;;;;;;4.10;89.20;;;;;;5093755;28;19920;-69
2021/03/25 04:22:27;;;;;;;;;;;4.10;89.40;;;;;;5087321;28;19913;-68
2021/03/25 04:24:52;;;;;;;;;;;4.00;89.70;;;;;;5074761;28;19916;-68
2021/03/25 04:27:22;;;;;;;;;;;4.00;89.60;;;;;;5088974;28;19919;-69
2021/03/25 04:30:09;;;;;;;;;;;4.10;89.20;;;;;;5088656;28;20213;-68
2021/03/25 04:32:36;;;;;;;;;;;4.10;88.80;;;;;;5080535;28;20022;-69
2021/03/25 04:35:02;;;;;;;;;;;4.20;88.10;;;;;;5079548;28;19928;-69
2021/03/25 04:37:29;;;;;;;;;;;4.20;88.20;;;;;;5059538;28;19913;-68
2021/03/25 04:39:55;;;;;;;;;;;4.20;88.10;;;;;;5090976;28;20054;-70
2021/03/25 04:42:20;;;;;;;;;;;4.10;88.30;;;;;;5076336;28;20293;-68
2021/03/25 04:44:48;;;;;;;;;;;4.10;88.40;;;;;;5080095;28;20016;-68
2021/03/25 04:47:19;;;;;;;;;;;4.10;88.30;;;;;;5078750;28;19912;-69
2021/03/25 04:49:56;;;;;;;;;;;4.10;88.30;;;;;;5075578;28;19924;-68
2021/03/25 04:52:26;;;;;;;;;;;4.20;88.20;;;;;;5077381;28;19920;-68
2021/03/25 04:54:52;;;;;;;;;;;4.10;88.80;;;;;;5088999;28;19939;-67
2021/03/25 04:57:23;;;;;;;;;;;4.00;89.20;;;;;;5078324;28;20012;-68
2021/03/25 04:59:50;;;;;;;;;;;3.90;89.60;;;;;;5092641;28;19955;-68
2021/03/25 05:02:15;;;;;;;;;;;3.80;90.00;;;;;;5083628;28;19920;-68
2021/03/25 05:04:44;;;;;;;;;;;3.70;90.00;;;;;;5085831;28;19920;-69
2021/03/25 05:07:13;;;;;;;;;;;3.50;90.80;;;;;;5075501;28;19909;-69
2021/03/25 05:09:38;;;;;;;;;;;3.10;91.80;;;;;;5078905;28;19912;-68
2021/03/25 05:12:05;;;;;;;;;;;2.70;93.00;;;;;;5059559;28;19942;-69
2021/03/25 05:14:30;;;;;;;;;;;2.30;94.10;;;;;;5087353;28;19921;-67
2021/03/25 05:17:15;;;;;;;;;;;2.10;95.00;;;;;;5079897;28;20348;-68
2021/03/25 05:19:43;;;;;;;;;;;2.00;95.50;;;;;;5078755;28;21457;-68
2021/03/25 05:22:13;;;;;;;;;;;1.80;95.90;;;;;;5082667;28;19917;-69
2021/03/25 05:24:41;;;;;;;;;;;1.70;96.40;;;;;;5088060;28;19916;-69
2021/03/25 05:27:10;;;;;;;;;;;2.20;96.70;;;;;;5086959;28;19918;-69
2021/03/25 05:29:36;;;;;;;;;;;2.70;95.60;;;;;;5084379;28;19959;-69
2021/03/25 05:32:02;;;;;;;;;;;3.00;94.80;;;;;;5068656;28;21430;-68
2021/03/25 05:34:27;;;;;;;;;;;3.20;93.60;;;;;;5086580;28;20008;-69
2021/03/25 05:36:55;;;;;;;;;;;3.30;93.00;;;;;;5078562;28;21290;-69
2021/03/25 05:39:21;;;;;;;;;;;3.50;92.50;;;;;;5076840;28;19913;-68
2021/03/25 05:41:52;;;;;;;;;;;3.60;92.00;;;;;;5080316;28;19913;-69
2021/03/25 05:44:21;;;;;;;;;;;3.70;91.60;;;;;;5073348;28;20338;-68
2021/03/25 05:47:05;;;;;;;;;;;3.80;91.20;;;;;;5072084;28;19959;-68
2021/03/25 05:49:39;;;;;;;;;;;4.00;90.60;;;;;;5085068;28;19962;-68
2021/03/25 05:52:15;;;;;;;;;;;4.10;89.80;;;;;;5091783;28;20377;-70
2021/03/25 05:54:44;;;;;;;;;;;4.20;89.70;;;;;;5062485;28;19919;-69
2021/03/25 05:57:18;;;;;;;;;;;4.40;88.80;;;;;;5080983;28;19923;-71
2021/03/25 05:59:52;;;;;;;;;;;4.60;88.30;;;;;;5090538;28;19917;-70
2021/03/25 06:02:19;;;;;;;;;;;4.70;87.50;;;;;;5073313;28;19917;-70
2021/03/25 06:04:48;;;;;;;;;;;4.70;87.60;;;;;;5081684;28;20266;-71
2021/03/25 06:07:38;;;;;;;;;;;4.70;87.60;;;;;;5098052;28;19912;-71
2021/03/25 06:10:10;;;;;;;;;;;4.70;87.80;;;;;;5083591;28;19912;-68
2021/03/25 06:12:53;;;;;;;;;;;4.80;87.80;;;;;;5052701;28;19916;-69
2021/03/25 06:15:32;;;;;;;;;;;5.00;87.30;;;;;;5086854;28;19916;-69
2021/03/25 06:18:10;;;;;;;;;;;5.10;87.00;;;;;;5079855;28;19908;-69
2021/03/25 06:20:35;;;;;;;;;;;5.10;87.60;;;;;;5060763;28;19920;-70
2021/03/25 06:23:04;;;;;;;;;;;5.10;87.50;;;;;;5078210;28;19913;-70
2021/03/25 06:25:40;;;;;;;;;;;5.20;87.50;;;;;;5078210;28;19909;-72
2021/03/25 06:28:08;;;;;;;;;;;5.30;87.30;;;;;;5078231;28;19999;-71
2021/03/25 06:30:37;;;;;;;;;;;5.30;87.00;;;;;;5074893;28;19962;-70
2021/03/25 06:33:06;;;;;;;;;;;5.40;87.00;;;;;;5081849;28;19923;-71
2021/03/25 06:35:39;;;;;;;;;;;5.50;87.10;;;;;;5080007;28;19920;-71
2021/03/25 06:38:24;;;;;;;;;;;5.70;86.80;;;;;;5094722;28;19959;-70
2021/03/25 06:40:50;;;;;;;;;;;5.90;86.80;;;;;;5092116;28;19908;-71
2021/03/25 06:43:18;;;;;;;;;;;6.10;86.60;;;;;;5093532;28;20230;-71
2021/03/25 06:45:53;;;;;;;;;;;6.30;86.10;;;;;;5077857;28;20031;-70
2021/03/25 06:48:27;;;;;;;;;;;6.40;84.50;;;;;;5081747;28;19912;-70
2021/03/25 06:50:53;;;;;;;;;;;6.70;85.60;;;;;;5097878;28;19951;-70
2021/03/25 06:53:21;;;;;;;;;;;6.90;84.70;;;;;;5093541;28;19916;-70
2021/03/25 06:56:10;;;;;;;;;;;7.00;83.90;;;;;;5078798;28;19916;-71
2021/03/25 06:58:39;;;;;;;;;;;6.90;83.60;;;;;;5068120;28;20003;-71
2021/03/25 07:01:20;;;;;;;;;;;7.00;84.00;;;;;;5085790;28;19916;-71
2021/03/25 07:03:46;;;;;;;;;;;7.10;84.20;;;;;;5073492;28;19930;-71
2021/03/25 07:06:12;;;;;;;;;;;7.20;83.80;;;;;;5081508;28;19935;-70
2021/03/25 07:08:38;;;;;;;;;;;7.40;82.60;;;;;;5066790;28;20301;-71
2021/03/25 07:11:12;;;;;;;;;;;7.70;82.90;;;;;;5094079;28;20794;-70
2021/03/25 07:13:43;;;;;;;;;;;8.00;83.10;;;;;;5069798;28;19912;-71
2021/03/25 07:16:11;;;;;;;;;;;8.20;82.80;;;;;;5080434;28;19912;-71
2021/03/25 07:18:51;;;;;;;;;;;8.30;81.60;;;;;;5087390;28;19913;-72
2021/03/25 07:21:24;;;;;;;;;;;8.60;81.40;;;;;;5077080;28;19966;-70
2021/03/25 07:23:50;;;;;;;;;;;8.80;80.30;;;;;;5086091;28;19916;-71
2021/03/25 07:26:30;;;;;;;;;;;9.10;81.30;;;;;;5061602;28;19920;-71
2021/03/25 07:28:58;;;;;;;;;;;9.20;81.70;;;;;;5073090;28;19920;-71
2021/03/25 07:31:29;;;;;;;;;;;9.30;81.10;;;;;;5076848;28;19912;-71
2021/03/25 07:33:55;;;;;;;;;;;9.50;80.60;;;;;;5077931;28;19927;-71
2021/03/25 07:36:20;;;;;;;;;;;9.70;80.60;;;;;;5076786;28;19917;-71
2021/03/25 07:38:46;;;;;;;;;;;9.70;80.00;;;;;;5085849;28;19916;-71
2021/03/25 07:41:11;;;;;;;;;;;10.00;79.00;;;;;;5092584;28;19919;-70
2021/03/25 07:44:01;;;;;;;;;;;10.30;79.10;;;;;;5086246;28;20309;-70
2021/03/25 07:46:47;;;;;;;;;;;10.40;79.40;;;;;;5081290;28;19966;-71
2021/03/25 07:49:15;;;;;;;;;;;10.90;77.70;;;;;;5096186;28;19959;-70
2021/03/25 07:51:46;;;;;;;;;;;11.20;72.50;;;;;;5093019;28;19920;-70
2021/03/25 07:54:16;;;;;;;;;;;11.50;67.00;;;;;;5062465;28;19916;-70
2021/03/25 07:57:08;;;;;;;;;;;11.90;64.30;;;;;;5091125;28;20328;-71
2021/03/25 07:59:36;;;;;;;;;;;12.10;64.50;;;;;;5056584;28;19995;-70
2021/03/25 08:02:02;;;;;;;;;;;12.40;62.50;;;;;;5068862;28;20213;-70
2021/03/25 08:04:29;;;;;;;;;;;12.80;61.70;;;;;;5091877;28;19913;-71
2021/03/25 08:07:13;;;;;;;;;;;13.00;61.50;;;;;;5079074;28;20201;-70
2021/03/25 08:09:47;;;;;;;;;;;13.20;62.30;;;;;;5082872;28;19919;-71
2021/03/25 08:12:41;;;;;;;;;;;13.40;60.90;;;;;;5080872;28;19912;-72
2021/03/25 08:15:08;;;;;;;;;;;13.40;61.00;;;;;;5090922;28;19912;-71
2021/03/25 08:17:44;;;;;;;;;;;13.30;60.90;;;;;;5058403;28;20659;-71
2021/03/25 08:20:17;;;;;;;;;;;13.50;62.00;;;;;;5092372;28;19916;-71
2021/03/25 08:23:02;;;;;;;;;;;13.70;60.60;;;;;;5082920;28;20258;-71
2021/03/25 08:25:48;;;;;;;;;;;13.70;60.80;;;;;;5083675;28;19923;-70
2021/03/25 08:28:13;;;;;;;;;;;14.30;61.20;;;;;;5068833;28;19935;-71
2021/03/25 08:30:45;;;;;;;;;;;15.60;59.10;;;;;;5078464;28;19908;-71
2021/03/25 08:33:19;;;;;;;;;;;16.80;55.10;;;;;;5090423;28;19916;-71
2021/03/25 08:35:57;;;;;;;;;;;17.50;53.70;;;;;;5093073;28;19998;-71
2021/03/25 08:38:34;;;;;;;;;;;17.60;54.00;;;;;;5089855;28;20313;-71
2021/03/25 08:41:02;;;;;;;;;;;18.10;52.50;;;;;;5077055;28;19919;-71
2021/03/25 08:43:42;;;;;;;;;;;18.10;52.70;;;;;;5076987;28;19990;-71
2021/03/25 08:46:13;;;;;;;;;;;18.60;52.60;;;;;;5076897;28;20428;-70
2021/03/25 08:48:54;;;;;;;;;;;17.70;51.70;;;;;;5079844;28;19917;-70
2021/03/25 08:51:23;;;;;;;;;;;17.50;53.20;;;;;;5054338;28;19927;-69
2021/03/25 08:54:07;;;;;;;;;;;16.70;53.20;;;;;;5054866;28;20202;-70
2021/03/25 08:56:35;;;;;;;;;;;17.20;53.90;;;;;;5066402;28;19912;-69
2021/03/25 08:59:03;;;;;;;;;;;17.50;53.20;;;;;;5074008;28;20030;-70
2021/03/25 09:01:34;;;;;;;;;;;17.70;53.20;;;;;;5069792;28;20371;-69
2021/03/25 09:04:02;;;;;;;;;;;17.10;54.00;;;;;;5070756;28;20331;-69
2021/03/25 09:06:37;;;;;;;;;;;17.60;53.90;;;;;;5061709;28;19978;-69
2021/03/25 09:09:18;;;;;;;;;;;17.40;53.50;;;;;;5072610;28;20058;-68
2021/03/25 09:11:43;;;;;;;;;;;17.70;53.30;;;;;;5070079;28;20024;-70
2021/03/25 09:14:17;;;;;;;;;;;17.50;53.20;;;;;;5074160;28;20283;-68
2021/03/25 09:16:46;;;;;;;;;;;17.90;53.80;;;;;;5075584;28;19908;-70
2021/03/25 09:19:20;;;;;;;;;;;17.80;53.30;;;;;;5062372;28;19971;-70
2021/03/25 09:21:46;;;;;;;;;;;17.80;53.70;;;;;;5060339;28;20282;-69
2021/03/25 09:24:12;;;;;;;;;;;18.00;53.10;;;;;;5044695;28;20019;-71
2021/03/25 09:26:51;;;;;;;;;;;18.80;52.50;;;;;;5079438;28;19908;-71
2021/03/25 09:29:17;;;;;;;;;;;19.40;52.10;;;;;;5069907;28;19908;-69
2021/03/25 09:31:55;;;;;;;;;;;19.20;50.90;;;;;;5078195;28;19923;-68
2021/03/25 09:34:23;;;;;;;;;;;19.20;52.00;;;;;;5075028;28;19924;-69
2021/03/25 09:36:54;;;;;;;;;;;19.30;51.20;;;;;;5058996;28;20011;-70
2021/03/25 09:39:23;;;;;;;;;;;18.60;51.50;;;;;;5066660;28;20205;-69
2021/03/25 09:41:50;;;;;;;;;;;19.10;51.60;;;;;;5078994;28;19912;-68
2021/03/25 09:44:20;;;;;;;;;;;19.60;50.80;;;;;;5078805;28;19908;-68
2021/03/25 09:46:50;;;;;;;;;;;19.30;51.00;;;;;;5078110;28;19918;-69
2021/03/25 09:49:18;;;;;;;;;;;18.90;52.00;;;;;;5080533;28;19920;-70
2021/03/25 09:51:45;;;;;;;;;;;18.60;52.70;;;;;;5079474;28;19920;-69
2021/03/25 09:54:24;;;;;;;;;;;18.50;52.90;;;;;;5077787;28;20313;-69
2021/03/25 09:57:08;;;;;;;;;;;18.50;52.90;;;;;;5102064;28;19912;-68
2021/03/25 09:59:47;;;;;;;;;;;18.90;52.70;;;;;;5097857;28;19954;-69
2021/03/25 10:02:13;;;;;;;;;;;19.00;52.10;;;;;;5083111;28;19920;-69
2021/03/25 10:04:39;;;;;;;;;;;19.10;52.20;;;;;;5098876;28;19916;-68
2021/03/25 10:07:11;;;;;;;;;;;19.00;53.10;;;;;;5087311;28;19917;-68
2021/03/25 10:09:57;;;;;;;;;;;19.00;52.00;;;;;;5096172;28;19908;-68
2021/03/25 10:12:41;;;;;;;;;;;19.00;51.60;;;;;;5083838;28;19916;-68
2021/03/25 10:15:27;;;;;;;;;;;19.40;52.40;;;;;;5089879;28;19920;-69
2021/03/25 10:17:53;;;;;;;;;;;19.70;51.00;;;;;;5105113;28;19933;-68
2021/03/25 10:20:37;;;;;;;;;;;19.60;51.60;;;;;;5097449;28;19912;-69
2021/03/25 10:23:03;;;;;;;;;;;19.60;51.80;;;;;;5087416;28;19912;-70
2021/03/25 10:25:30;;;;;;;;;;;20.10;51.30;;;;;;5090806;28;19931;-69
2021/03/25 10:27:58;;;;;;;;;;;20.30;50.60;;;;;;5077081;28;19909;-70
2021/03/25 10:30:29;;;;;;;;;;;19.90;51.40;;;;;;5083892;28;19999;-70
2021/03/25 10:32:54;;;;;;;;;;;19.00;52.10;;;;;;5059907;28;19932;-69
2021/03/25 10:35:22;;;;;;;;;;;18.50;53.80;;;;;;5086185;28;19920;-70
2021/03/25 10:37:53;;;;;;;;;;;18.60;54.10;;;;;;5087091;28;20305;-69
2021/03/25 10:40:21;;;;;;;;;;;18.60;54.40;;;;;;5097512;28;19978;-71
2021/03/25 10:43:01;;;;;;;;;;;19.00;53.30;;;;;;5097963;28;19908;-70
2021/03/25 10:45:28;;;;;;;;;;;19.10;53.40;;;;;;5094141;28;19959;-70
2021/03/25 10:47:54;;;;;;;;;;;19.50;52.60;;;;;;5093670;28;20623;-70
2021/03/25 10:50:22;;;;;;;;;;;19.70;52.00;;;;;;5071469;28;19921;-70
2021/03/25 10:52:48;;;;;;;;;;;20.10;52.20;;;;;;5078053;28;19916;-70
2021/03/25 10:55:16;;;;;;;;;;;19.70;53.00;;;;;;5086622;28;19916;-69
2021/03/25 10:57:45;;;;;;;;;;;18.80;53.60;;;;;;5067014;28;20426;-68
2021/03/25 11:00:16;;;;;;;;;;;18.70;53.40;;;;;;5085379;28;20325;-69
2021/03/25 11:02:43;;;;;;;;;;;18.90;53.10;;;;;;5071366;28;19912;-69
2021/03/25 11:05:21;;;;;;;;;;;19.60;53.30;;;;;;5069573;28;20003;-68
2021/03/25 11:07:49;;;;;;;;;;;19.20;51.80;;;;;;5066828;28;19944;-68
2021/03/25 11:10:18;;;;;;;;;;;19.40;51.00;;;;;;5069038;28;20213;-69
2021/03/25 11:12:44;;;;;;;;;;;19.60;51.30;;;;;;5065852;28;19948;-68
2021/03/25 11:15:18;;;;;;;;;;;20.10;50.20;;;;;;5062263;28;19944;-67
2021/03/25 11:17:44;;;;;;;;;;;19.80;50.80;;;;;;5069657;28;19923;-67
2021/03/25 11:20:20;;;;;;;;;;;20.40;50.40;;;;;;5050525;28;19909;-67
2021/03/25 11:22:48;;;;;;;;;;;20.00;49.80;;;;;;5062446;28;19917;-68
2021/03/25 11:25:27;;;;;;;;;;;18.60;52.20;;;;;;5074778;28;20008;-67
2021/03/25 11:27:59;;;;;;;;;;;18.10;53.90;;;;;;5058696;28;19995;-68
2021/03/25 11:30:33;;;;;;;;;;;18.20;53.80;;;;;;5073170;28;19912;-68
2021/03/25 11:32:59;;;;;;;;;;;18.70;52.70;;;;;;5073743;28;19985;-66
2021/03/25 11:35:45;;;;;;;;;;;19.40;51.90;;;;;;5063766;28;19920;-67
2021/03/25 11:38:16;;;;;;;;;;;19.20;51.40;;;;;;5064144;28;19913;-67
2021/03/25 11:40:43;;;;;;;;;;;17.60;52.40;;;;;;5076164;28;20302;-66
2021/03/25 11:43:12;;;;;;;;;;;16.50;55.10;;;;;;5060211;28;19961;-66
2021/03/25 11:45:40;;;;;;;;;;;16.60;55.70;;;;;;5071787;28;19920;-66
2021/03/25 11:48:18;;;;;;;;;;;17.50;53.70;;;;;;5057803;28;19932;-66
2021/03/25 11:50:46;;;;;;;;;;;18.60;51.40;;;;;;5072284;28;19925;-66
2021/03/25 11:53:33;;;;;;;;;;;18.10;51.70;;;;;;5089104;28;19920;-67
2021/03/25 11:55:59;;;;;;;;;;;17.40;53.60;;;;;;5078288;28;19955;-67
2021/03/25 11:58:26;;;;;;;;;;;17.60;53.00;;;;;;5096716;28;19920;-67
2021/03/25 12:00:55;;;;;;;;;;;18.10;52.50;;;;;;5061372;28;20220;-67
2021/03/25 12:03:25;;;;;;;;;;;18.80;51.40;;;;;;5076581;28;20328;-67
2021/03/25 12:05:51;;;;;;;;;;;19.80;51.20;;;;;;5093570;28;19912;-67
2021/03/25 12:08:17;;;;;;;;;;;19.90;49.70;;;;;;5059072;28;19974;-67
2021/03/25 12:10:43;;;;;;;;;;;20.10;50.00;;;;;;5076344;28;20225;-67
2021/03/25 12:13:09;;;;;;;;;;;19.90;49.00;;;;;;5076170;28;19921;-67
2021/03/25 12:15:36;;;;;;;;;;;19.60;50.50;;;;;;5058566;28;20267;-67
2021/03/25 12:18:06;;;;;;;;;;;19.50;50.50;;;;;;5076114;28;19915;-66
2021/03/25 12:20:37;;;;;;;;;;;19.40;50.40;;;;;;5076547;28;19909;-67
2021/03/25 12:23:26;;;;;;;;;;;19.30;50.60;;;;;;5095142;28;19909;-67
2021/03/25 12:25:53;;;;;;;;;;;19.30;49.70;;;;;;5096513;28;19908;-67
2021/03/25 12:28:19;;;;;;;;;;;18.70;50.60;;;;;;5096379;28;19916;-67
2021/03/25 12:30:46;;;;;;;;;;;18.20;51.90;;;;;;5096308;28;19912;-67
2021/03/25 12:33:20;;;;;;;;;;;17.90;52.40;;;;;;5096128;28;19912;-67
2021/03/25 12:35:46;;;;;;;;;;;18.30;51.90;;;;;;5096206;28;19912;-67
2021/03/25 12:38:11;;;;;;;;;;;18.70;51.20;;;;;;5094929;28;19986;-67
2021/03/25 12:40:37;;;;;;;;;;;18.70;51.20;;;;;;5096218;28;20292;-67
2021/03/25 12:43:03;;;;;;;;;;;18.70;50.20;;;;;;5078373;28;19943;-67
2021/03/25 12:45:31;;;;;;;;;;;18.40;52.00;;;;;;5095969;28;19908;-67
2021/03/25 12:47:57;;;;;;;;;;;18.30;52.90;;;;;;5096037;28;19961;-67
2021/03/25 12:50:23;;;;;;;;;;;18.20;51.90;;;;;;5093137;28;19928;-67
2021/03/25 12:52:49;;;;;;;;;;;18.10;51.60;;;;;;5094772;28;19965;-67
2021/03/25 12:55:14;;;;;;;;;;;17.60;53.30;;;;;;5095952;28;19912;-67
2021/03/25 12:57:40;;;;;;;;;;;17.20;53.80;;;;;;5077995;28;20293;-67
2021/03/25 13:00:07;;;;;;;;;;;17.20;54.60;;;;;;5094159;28;19923;-67
2021/03/25 13:02:33;;;;;;;;;;;17.10;53.90;;;;;;5077159;28;19913;-67
2021/03/25 13:04:59;;;;;;;;;;;17.20;53.60;;;;;;5078677;28;19913;-67
2021/03/25 13:07:24;;;;;;;;;;;17.60;55.00;;;;;;5075758;28;20384;-66
2021/03/25 13:09:50;;;;;;;;;;;17.90;54.30;;;;;;5074381;28;19913;-67
2021/03/25 13:12:21;;;;;;;;;;;17.80;54.00;;;;;;5093859;28;20224;-67
2021/03/25 13:14:46;;;;;;;;;;;17.80;53.60;;;;;;5086496;28;20281;-67
2021/03/25 13:17:12;;;;;;;;;;;17.90;54.00;;;;;;5091104;28;19995;-67
2021/03/25 13:19:38;;;;;;;;;;;17.70;53.40;;;;;;5095790;28;19908;-67
2021/03/25 13:22:05;;;;;;;;;;;17.50;54.90;;;;;;5095781;28;20235;-67
2021/03/25 13:24:30;;;;;;;;;;;17.40;54.80;;;;;;5069354;28;20300;-66
2021/03/25 13:26:56;;;;;;;;;;;17.30;55.10;;;;;;5057718;28;19916;-67
2021/03/25 13:29:22;;;;;;;;;;;17.10;55.20;;;;;;5075410;28;19908;-67
2021/03/25 13:31:47;;;;;;;;;;;17.10;55.20;;;;;;5075515;28;19908;-67
2021/03/25 13:34:13;;;;;;;;;;;17.40;55.30;;;;;;5089587;28;20015;-67
2021/03/25 13:36:39;;;;;;;;;;;17.70;54.40;;;;;;5094920;28;19916;-67
2021/03/25 13:39:05;;;;;;;;;;;18.30;54.20;;;;;;5094066;28;19955;-67
2021/03/25 13:41:30;;;;;;;;;;;18.30;53.10;;;;;;5095186;28;20391;-67
2021/03/25 13:43:56;;;;;;;;;;;18.10;54.60;;;;;;5095426;28;20281;-67
2021/03/25 13:46:22;;;;;;;;;;;17.90;54.30;;;;;;5094192;28;19933;-67
2021/03/25 13:48:47;;;;;;;;;;;17.50;54.60;;;;;;5075319;28;19923;-67
2021/03/25 13:51:13;;;;;;;;;;;17.40;55.10;;;;;;5075290;28;19929;-67
2021/03/25 13:53:39;;;;;;;;;;;17.20;55.50;;;;;;5075153;28;19999;-67
2021/03/25 13:56:05;;;;;;;;;;;17.30;55.20;;;;;;5075315;28;19908;-67
2021/03/25 13:58:30;;;;;;;;;;;17.40;55.70;;;;;;5075215;28;19912;-68
2021/03/25 14:00:56;;;;;;;;;;;18.00;54.40;;;;;;5075130;28;19912;-67
2021/03/25 14:03:22;;;;;;;;;;;18.30;53.80;;;;;;5078532;28;19909;-67
2021/03/25 14:05:49;;;;;;;;;;;18.50;54.10;;;;;;5078814;28;19915;-67
2021/03/25 14:08:15;;;;;;;;;;;18.60;53.10;;;;;;5091998;28;19938;-67
2021/03/25 14:10:41;;;;;;;;;;;18.10;53.90;;;;;;5087384;28;19919;-68
2021/03/25 14:13:09;;;;;;;;;;;17.70;55.50;;;;;;5078663;28;19947;-67
2021/03/25 14:15:42;;;;;;;;;;;17.50;55.00;;;;;;5094372;28;20010;-68
2021/03/25 14:18:13;;;;;;;;;;;17.40;56.50;;;;;;5097975;28;19916;-67
2021/03/25 14:20:40;;;;;;;;;;;18.10;55.80;;;;;;5092992;28;19935;-67
2021/03/25 14:23:16;;;;;;;;;;;18.00;55.30;;;;;;5097496;28;20014;-67
2021/03/25 14:25:44;;;;;;;;;;;17.80;54.90;;;;;;5096794;28;19966;-67
2021/03/25 14:28:11;;;;;;;;;;;17.30;55.90;;;;;;5097727;28;20204;-67
2021/03/25 14:30:39;;;;;;;;;;;16.80;57.10;;;;;;5093748;28;20431;-67
2021/03/25 14:33:06;;;;;;;;;;;16.80;57.20;;;;;;5096582;28;20218;-67
2021/03/25 14:35:33;;;;;;;;;;;16.70;57.20;;;;;;5097590;28;19923;-67
2021/03/25 14:38:00;;;;;;;;;;;16.60;57.60;;;;;;5093026;28;19923;-67
2021/03/25 14:40:26;;;;;;;;;;;16.40;57.70;;;;;;5092582;28;19973;-67
2021/03/25 14:42:52;;;;;;;;;;;16.30;58.10;;;;;;5091885;28;19919;-67